Terminal Aerodrome Forecast
Issued by NWS

Home | Current Version | Previous Version | Text Only | Print | Product List | Glossary On
Versions: 1 2 3 4 5 6 7 8 9 10 11 12 13 14
000
FTUS44 KJAN 221100 RRA
TAFGTR
TAF
KGTR 221145Z 2212/2312 15005KT 6SM BR OVC008
     FM221600 15011G16KT P6SM VCSH OVC009
     FM230000 16010KT 4SM -RA BR OVC007
     FM230900 25005KT 2SM BR OVC003=

USA.gov is the U.S. government's official web portal to all federal, state and local government web resources and services.